Time;durP1;ratioP1;P1;durP2;ratioP2;P2;SDS_P1;SDS_P2;PMS_P1;PMS_P2;Temp;Humidity;BMP_temperature;BMP_pressure;BME280_temperature;BME280_humidity;BME280_pressure;Samples;Min_cycle;Max_cycle;Signal;HPM_P1;HPM_P2
2021/07/29 00:00:32;;;;;;;10.98;9.88;;;;;;;;;;5093545;28;20197;-70
2021/07/29 00:02:58;;;;;;;11.38;10.05;;;;;;;;;;5093884;28;20028;-70
2021/07/29 00:05:24;;;;;;;11.48;10.27;;;;;;;;;;5093821;28;20050;-70
2021/07/29 00:07:50;;;;;;;9.30;8.40;;;;;;;;;;5093727;28;20066;-71
2021/07/29 00:10:16;;;;;;;10.20;8.45;;;;;;;;;;5094222;28;20427;-71
2021/07/29 00:12:42;;;;;;;10.65;9.57;;;;;;;;;;5094033;28;20051;-70
2021/07/29 00:15:11;;;;;;;10.25;9.27;;;;;;;;;;5094106;28;20381;-71
2021/07/29 00:20:24;;;;;;;10.70;9.68;;;;;;;;;;5078997;28;20089;-70
2021/07/29 00:22:53;;;;;;;9.55;8.68;;;;;;;;;;5093960;28;20445;-70
2021/07/29 00:25:19;;;;;;;8.77;7.93;;;;;;;;;;5093951;28;20370;-70
2021/07/29 00:27:45;;;;;;;8.95;8.10;;;;;;;;;;5093558;28;20493;-71
2021/07/29 00:30:11;;;;;;;8.98;7.68;;;;;;;;;;5093583;28;20034;-71
2021/07/29 00:32:38;;;;;;;8.43;7.60;;;;;;;;;;5093709;28;20418;-71
2021/07/29 00:35:04;;;;;;;8.77;7.97;;;;;;;;;;5093652;28;20119;-71
2021/07/29 00:37:30;;;;;;;7.72;7.03;;;;;;;;;;5093825;28;20036;-71
2021/07/29 00:39:56;;;;;;;7.07;6.47;;;;;;;;;;5097747;28;20557;-71
2021/07/29 00:42:22;;;;;;;9.10;8.20;;;;;;;;;;5097990;28;20446;-71
2021/07/29 00:44:48;;;;;;;7.50;6.80;;;;;;;;;;5098613;28;20028;-71
2021/07/29 00:47:15;;;;;;;8.27;7.55;;;;;;;;;;5097995;28;20028;-71
2021/07/29 00:49:41;;;;;;;7.82;7.03;;;;;;;;;;5097970;28;20424;-71
2021/07/29 00:52:07;;;;;;;15.82;8.00;;;;;;;;;;5097841;28;20048;-71
2021/07/29 00:54:33;;;;;;;7.20;6.50;;;;;;;;;;5097815;28;20020;-70
2021/07/29 00:56:59;;;;;;;9.27;8.10;;;;;;;;;;5097559;28;20021;-72
2021/07/29 00:59:25;;;;;;;7.85;7.07;;;;;;;;;;5097550;28;20115;-71
2021/07/29 01:01:51;;;;;;;7.93;7.13;;;;;;;;;;5097397;28;20035;-72
2021/07/29 01:04:17;;;;;;;7.43;6.82;;;;;;;;;;5098065;28;20024;-72
2021/07/29 01:06:43;;;;;;;7.75;6.65;;;;;;;;;;5097830;28;20059;-71
2021/07/29 01:09:09;;;;;;;8.45;7.40;;;;;;;;;;5097156;28;20074;-72
2021/07/29 01:11:37;;;;;;;9.35;7.03;;;;;;;;;;5097123;28;20077;-72
2021/07/29 01:14:03;;;;;;;8.30;7.32;;;;;;;;;;5096944;28;20477;-71
2021/07/29 01:16:29;;;;;;;7.60;6.88;;;;;;;;;;5097328;28;20115;-72
2021/07/29 01:18:55;;;;;;;9.57;7.75;;;;;;;;;;5097306;28;20086;-73
2021/07/29 01:21:21;;;;;;;8.25;7.55;;;;;;;;;;5097260;28;20526;-71
2021/07/29 01:23:47;;;;;;;7.55;6.88;;;;;;;;;;5097112;28;20039;-71
2021/07/29 01:26:13;;;;;;;9.05;7.57;;;;;;;;;;5096776;28;20470;-71
2021/07/29 01:28:39;;;;;;;7.88;7.15;;;;;;;;;;5096774;28;20493;-71
2021/07/29 01:31:05;;;;;;;7.60;6.95;;;;;;;;;;5097511;28;20124;-71
2021/07/29 01:33:32;;;;;;;7.65;6.63;;;;;;;;;;5096908;28;20028;-71
2021/07/29 01:35:58;;;;;;;8.07;7.28;;;;;;;;;;5096554;28;20035;-70
2021/07/29 01:38:24;;;;;;;7.38;6.68;;;;;;;;;;5096533;28;20377;-70
2021/07/29 01:40:50;;;;;;;8.52;6.72;;;;;;;;;;5096530;28;20020;-72
2021/07/29 01:43:16;;;;;;;8.27;7.47;;;;;;;;;;5096631;28;20051;-71
2021/07/29 01:45:42;;;;;;;7.88;6.50;;;;;;;;;;5096764;28;20111;-71
2021/07/29 01:48:08;;;;;;;9.73;6.50;;;;;;;;;;5096260;28;20024;-71
2021/07/29 01:50:34;;;;;;;6.82;6.22;;;;;;;;;;5095625;28;20028;-70
2021/07/29 01:53:00;;;;;;;7.93;6.80;;;;;;;;;;5096304;28;20165;-70
2021/07/29 01:55:26;;;;;;;7.70;7.00;;;;;;;;;;5096352;28;20027;-72
2021/07/29 01:57:52;;;;;;;8.82;6.50;;;;;;;;;;5096185;28;20032;-71
2021/07/29 02:00:18;;;;;;;7.90;6.97;;;;;;;;;;5096921;28;20043;-71
2021/07/29 02:02:44;;;;;;;6.78;6.03;;;;;;;;;;5096168;28;20042;-71
2021/07/29 02:05:10;;;;;;;7.35;6.65;;;;;;;;;;5096256;28;20035;-71
2021/07/29 02:07:36;;;;;;;7.28;6.70;;;;;;;;;;5096353;28;20024;-71
2021/07/29 02:10:02;;;;;;;7.13;5.65;;;;;;;;;;5096092;28;20028;-71
2021/07/29 02:12:28;;;;;;;8.02;7.25;;;;;;;;;;5095696;28;20734;-71
2021/07/29 02:14:54;;;;;;;8.88;7.97;;;;;;;;;;5095919;28;20485;-70
2021/07/29 02:17:20;;;;;;;8.43;6.65;;;;;;;;;;5096053;28;20035;-69
2021/07/29 02:19:47;;;;;;;10.55;8.27;;;;;;;;;;5096125;28;20517;-70
2021/07/29 02:22:13;;;;;;;15.13;7.05;;;;;;;;;;5095554;28;20137;-71
2021/07/29 02:24:39;;;;;;;9.27;7.82;;;;;;;;;;5096146;28;20059;-71
2021/07/29 02:27:05;;;;;;;10.27;8.43;;;;;;;;;;5095671;28;20024;-71
2021/07/29 02:29:31;;;;;;;8.88;7.68;;;;;;;;;;5095976;28;20021;-71
2021/07/29 02:31:57;;;;;;;9.15;7.72;;;;;;;;;;5095615;28;20031;-71
2021/07/29 02:34:23;;;;;;;8.52;7.78;;;;;;;;;;5096314;28;20073;-71
2021/07/29 02:36:50;;;;;;;7.97;7.25;;;;;;;;;;5095587;28;20107;-71
2021/07/29 02:39:16;;;;;;;9.32;7.57;;;;;;;;;;5095993;28;20062;-72
2021/07/29 02:41:42;;;;;;;8.63;7.82;;;;;;;;;;5095439;28;20036;-71
2021/07/29 02:44:08;;;;;;;8.40;7.68;;;;;;;;;;5095409;28;20043;-70
2021/07/29 02:46:34;;;;;;;9.05;7.65;;;;;;;;;;5096020;28;20059;-71
2021/07/29 02:49:00;;;;;;;7.88;7.07;;;;;;;;;;5095794;28;20024;-71
2021/07/29 02:51:26;;;;;;;8.75;7.88;;;;;;;;;;5095085;28;20020;-71
2021/07/29 02:53:52;;;;;;;10.07;7.18;;;;;;;;;;5095486;28;20032;-72
2021/07/29 02:56:18;;;;;;;8.48;7.55;;;;;;;;;;5095039;28;20089;-72
2021/07/29 02:58:47;;;;;;;9.50;8.60;;;;;;;;;;5095881;28;20035;-71
2021/07/29 03:01:14;;;;;;;8.05;7.28;;;;;;;;;;5095548;28;20020;-71
2021/07/29 03:03:40;;;;;;;9.43;7.40;;;;;;;;;;5095417;28;20028;-71
2021/07/29 03:06:06;;;;;;;8.95;8.25;;;;;;;;;;5095083;28;20020;-71
2021/07/29 03:08:32;;;;;;;9.65;8.68;;;;;;;;;;5095228;28;20028;-72
2021/07/29 03:10:58;;;;;;;12.80;9.48;;;;;;;;;;5095092;28;20089;-71
2021/07/29 03:13:25;;;;;;;12.23;9.55;;;;;;;;;;5095308;28;20020;-71
2021/07/29 03:15:51;;;;;;;10.80;9.45;;;;;;;;;;5094749;28;20111;-71
2021/07/29 03:18:17;;;;;;;9.15;8.25;;;;;;;;;;5094852;28;20016;-70
2021/07/29 03:20:43;;;;;;;9.85;8.93;;;;;;;;;;5094669;28;20104;-71
2021/07/29 03:23:10;;;;;;;11.13;7.95;;;;;;;;;;5094293;28;20484;-71
2021/07/29 03:25:36;;;;;;;9.88;8.95;;;;;;;;;;5094828;28;20575;-71
2021/07/29 03:28:03;;;;;;;10.82;9.70;;;;;;;;;;5093510;28;20028;-72
2021/07/29 03:30:29;;;;;;;12.77;9.55;;;;;;;;;;5093857;28;20028;-71
2021/07/29 03:32:55;;;;;;;11.60;9.50;;;;;;;;;;5095007;28;20020;-71
2021/07/29 03:35:21;;;;;;;11.15;10.02;;;;;;;;;;5094606;28;20059;-71
2021/07/29 03:37:47;;;;;;;10.30;9.30;;;;;;;;;;5094579;28;20079;-71
2021/07/29 03:40:14;;;;;;;12.90;11.52;;;;;;;;;;5093048;28;20063;-71
2021/07/29 03:42:40;;;;;;;11.23;10.15;;;;;;;;;;5095054;28;20024;-71
2021/07/29 03:45:06;;;;;;;10.82;9.77;;;;;;;;;;5094891;28;20365;-72
2021/07/29 03:47:32;;;;;;;10.95;9.88;;;;;;;;;;5094326;28;20028;-71
2021/07/29 03:49:58;;;;;;;11.43;10.35;;;;;;;;;;5094306;28;20374;-71
2021/07/29 03:52:24;;;;;;;12.13;10.15;;;;;;;;;;5094398;28;20496;-71
2021/07/29 03:54:52;;;;;;;14.05;10.55;;;;;;;;;;5094043;28;20028;-71
2021/07/29 03:57:19;;;;;;;13.13;11.13;;;;;;;;;;5094479;28;20028;-71
2021/07/29 03:59:45;;;;;;;15.93;11.13;;;;;;;;;;5094262;28;20036;-71
2021/07/29 04:02:11;;;;;;;12.50;10.60;;;;;;;;;;5094037;28;20025;-71
2021/07/29 04:04:38;;;;;;;12.10;10.95;;;;;;;;;;5094335;28;20028;-70
2021/07/29 04:07:05;;;;;;;12.57;11.38;;;;;;;;;;5094069;28;20024;-71
2021/07/29 04:09:31;;;;;;;11.75;10.75;;;;;;;;;;5093837;28;20118;-71
2021/07/29 04:11:57;;;;;;;13.40;11.73;;;;;;;;;;5093843;28;20025;-72
2021/07/29 04:14:23;;;;;;;13.23;11.95;;;;;;;;;;5094425;28;20020;-71
2021/07/29 04:16:52;;;;;;;13.50;12.10;;;;;;;;;;5094194;28;20026;-71
2021/07/29 04:19:18;;;;;;;12.52;11.32;;;;;;;;;;5093998;28;20032;-71
2021/07/29 04:21:44;;;;;;;15.27;12.00;;;;;;;;;;5094267;28;20024;-71
2021/07/29 04:24:10;;;;;;;14.63;13.32;;;;;;;;;;5093570;28;20098;-71
2021/07/29 04:26:37;;;;;;;15.43;13.15;;;;;;;;;;5094509;28;20025;-72
2021/07/29 04:29:03;;;;;;;13.48;12.10;;;;;;;;;;5094152;28;20490;-71
2021/07/29 04:31:29;;;;;;;13.82;12.38;;;;;;;;;;5094128;28;20500;-72
2021/07/29 04:33:55;;;;;;;12.68;11.48;;;;;;;;;;5093910;28;20023;-72
2021/07/29 04:36:21;;;;;;;14.02;12.32;;;;;;;;;;5094022;28;20114;-72
2021/07/29 04:38:47;;;;;;;16.98;12.85;;;;;;;;;;5093526;28;20024;-71
2021/07/29 04:41:13;;;;;;;13.30;11.95;;;;;;;;;;5093831;28;20021;-71
2021/07/29 04:43:39;;;;;;;16.10;12.45;;;;;;;;;;5094070;28;20035;-71
2021/07/29 04:46:05;;;;;;;12.60;11.40;;;;;;;;;;5093381;28;20515;-72
2021/07/29 04:48:31;;;;;;;12.20;11.07;;;;;;;;;;5093875;28;20512;-71
2021/07/29 04:51:05;;;;;;;12.85;10.98;;;;;;;;;;5094126;28;20024;-71
2021/07/29 04:53:31;;;;;;;16.00;13.10;;;;;;;;;;5093446;28;20135;-71
2021/07/29 04:55:57;;;;;;;12.63;10.65;;;;;;;;;;5093753;28;20070;-71
2021/07/29 04:58:23;;;;;;;13.60;11.38;;;;;;;;;;5093811;28;20038;-72
2021/07/29 05:00:49;;;;;;;12.00;10.90;;;;;;;;;;5094094;28;20028;-71
2021/07/29 05:03:15;;;;;;;14.18;10.52;;;;;;;;;;5094196;28;20031;-71
2021/07/29 05:05:41;;;;;;;10.93;9.77;;;;;;;;;;5093617;28;20024;-72
2021/07/29 05:08:07;;;;;;;10.80;9.82;;;;;;;;;;5093350;28;20111;-70
2021/07/29 05:10:33;;;;;;;11.95;10.60;;;;;;;;;;5093729;28;20020;-71
2021/07/29 05:12:59;;;;;;;13.15;10.88;;;;;;;;;;5093755;28;20020;-71
2021/07/29 05:15:25;;;;;;;12.00;10.77;;;;;;;;;;5093801;28;20027;-71
2021/07/29 05:17:54;;;;;;;12.07;9.32;;;;;;;;;;5093378;28;20111;-71
2021/07/29 05:20:22;;;;;;;10.70;9.70;;;;;;;;;;5093193;28;20070;-72
2021/07/29 05:22:48;;;;;;;10.20;9.18;;;;;;;;;;5093626;28;20505;-72
2021/07/29 05:25:22;;;;;;;11.30;10.25;;;;;;;;;;5095562;28;20032;-71
2021/07/29 05:27:48;;;;;;;11.13;10.10;;;;;;;;;;5097324;28;20027;-71
2021/07/29 05:30:14;;;;;;;11.82;9.10;;;;;;;;;;5096878;28;20020;-73
2021/07/29 05:32:40;;;;;;;26.52;10.23;;;;;;;;;;5095927;28;20115;-75
2021/07/29 05:35:06;;;;;;;12.23;10.23;;;;;;;;;;5095614;28;20032;-73
2021/07/29 05:37:32;;;;;;;10.50;9.40;;;;;;;;;;5096223;28;20024;-74
2021/07/29 05:39:58;;;;;;;13.23;8.88;;;;;;;;;;5096166;28;20469;-73
2021/07/29 05:42:24;;;;;;;9.30;8.45;;;;;;;;;;5096032;28;20465;-73
2021/07/29 05:44:50;;;;;;;10.38;9.23;;;;;;;;;;5096820;28;20093;-72
2021/07/29 05:47:17;;;;;;;18.30;8.55;;;;;;;;;;5096543;28;20141;-73
2021/07/29 05:49:43;;;;;;;9.57;8.68;;;;;;;;;;5096306;28;20109;-75
2021/07/29 05:52:09;;;;;;;13.73;8.00;;;;;;;;;;5096163;28;20056;-74
2021/07/29 05:54:35;;;;;;;10.85;8.70;;;;;;;;;;5096563;28;20024;-74
2021/07/29 05:57:01;;;;;;;9.10;7.68;;;;;;;;;;5094730;28;20420;-73
2021/07/29 05:59:27;;;;;;;20.92;7.90;;;;;;;;;;5097030;28;20063;-74
2021/07/29 06:01:53;;;;;;;8.35;7.53;;;;;;;;;;5095470;28;20020;-74
2021/07/29 06:04:19;;;;;;;10.85;7.35;;;;;;;;;;5095435;28;20393;-75
2021/07/29 06:06:45;;;;;;;11.82;9.00;;;;;;;;;;5095746;28;20378;-73
2021/07/29 06:09:11;;;;;;;15.48;8.80;;;;;;;;;;5096273;28;20020;-73
2021/07/29 06:11:37;;;;;;;10.90;9.57;;;;;;;;;;5095300;28;20024;-73
2021/07/29 06:14:03;;;;;;;10.05;8.68;;;;;;;;;;5094858;28;20458;-73
2021/07/29 06:16:30;;;;;;;10.32;9.30;;;;;;;;;;5095908;28;20424;-73
2021/07/29 06:21:42;;;;;;;15.30;7.55;;;;;;;;;;5080639;28;20495;-71
2021/07/29 06:24:08;;;;;;;19.90;8.52;;;;;;;;;;5094861;28;20370;-72
2021/07/29 06:26:34;;;;;;;9.38;8.32;;;;;;;;;;5096104;28;20106;-71
2021/07/29 06:29:00;;;;;;;11.73;7.32;;;;;;;;;;5095220;28;20035;-71
2021/07/29 06:31:26;;;;;;;21.90;8.07;;;;;;;;;;5095853;28;20045;-73
2021/07/29 06:33:52;;;;;;;11.60;7.57;;;;;;;;;;5095051;28;20492;-73
2021/07/29 06:36:18;;;;;;;16.60;8.27;;;;;;;;;;5094945;28;20024;-72
2021/07/29 06:38:44;;;;;;;6.93;6.15;;;;;;;;;;5095168;28;20032;-75
2021/07/29 06:41:10;;;;;;;10.15;6.90;;;;;;;;;;5094187;28;20016;-73
2021/07/29 06:43:36;;;;;;;8.35;7.35;;;;;;;;;;5093402;28;20433;-74
2021/07/29 06:46:05;;;;;;;7.68;6.70;;;;;;;;;;5092762;28;20497;-72
2021/07/29 06:48:31;;;;;;;9.50;7.50;;;;;;;;;;5094455;28;20036;-72
2021/07/29 06:51:01;;;;;;;8.85;7.60;;;;;;;;;;5095463;28;20397;-72
2021/07/29 06:53:27;;;;;;;8.40;7.38;;;;;;;;;;5095124;28;20089;-73
2021/07/29 06:55:53;;;;;;;9.07;7.68;;;;;;;;;;5095348;28;20024;-72
2021/07/29 06:58:21;;;;;;;7.72;6.95;;;;;;;;;;5095729;28;20070;-74
2021/07/29 07:00:48;;;;;;;7.65;7.00;;;;;;;;;;5094808;28;20554;-72
2021/07/29 07:03:14;;;;;;;7.70;7.00;;;;;;;;;;5094881;28;20055;-71
2021/07/29 07:05:45;;;;;;;7.10;6.25;;;;;;;;;;5094443;28;20028;-71
2021/07/29 07:08:11;;;;;;;8.07;7.05;;;;;;;;;;5094376;28;20023;-71
2021/07/29 07:10:37;;;;;;;9.25;7.32;;;;;;;;;;5094680;28;20107;-70
2021/07/29 07:13:03;;;;;;;9.07;6.47;;;;;;;;;;5094070;28;20020;-71
2021/07/29 07:15:29;;;;;;;9.18;7.10;;;;;;;;;;5093945;28;20020;-71
2021/07/29 07:17:55;;;;;;;7.90;6.90;;;;;;;;;;5094034;28;20020;-72
2021/07/29 07:20:21;;;;;;;7.38;6.68;;;;;;;;;;5094023;28;20081;-71
2021/07/29 07:22:47;;;;;;;9.23;6.70;;;;;;;;;;5094681;28;20032;-72
2021/07/29 07:25:14;;;;;;;7.80;6.95;;;;;;;;;;5094461;28;20025;-72
2021/07/29 07:27:40;;;;;;;7.25;6.55;;;;;;;;;;5094070;28;20055;-72
2021/07/29 07:30:06;;;;;;;7.63;6.38;;;;;;;;;;5094057;28;20020;-72
2021/07/29 07:32:32;;;;;;;10.60;6.45;;;;;;;;;;5095108;28;20028;-72
2021/07/29 07:34:58;;;;;;;8.07;6.88;;;;;;;;;;5094311;28;20031;-72
2021/07/29 07:37:24;;;;;;;7.18;6.22;;;;;;;;;;5094032;28;20479;-72
2021/07/29 07:39:50;;;;;;;6.95;6.22;;;;;;;;;;5093575;28;20363;-72
2021/07/29 07:42:16;;;;;;;7.03;6.13;;;;;;;;;;5095168;28;20028;-72
2021/07/29 07:44:42;;;;;;;6.40;5.80;;;;;;;;;;5094284;28;20434;-72
2021/07/29 07:47:09;;;;;;;8.63;6.70;;;;;;;;;;5093681;28;20027;-72
2021/07/29 07:49:35;;;;;;;6.40;5.90;;;;;;;;;;5094127;28;20024;-72
2021/07/29 07:52:01;;;;;;;7.07;5.82;;;;;;;;;;5093525;28;20048;-73
2021/07/29 07:54:27;;;;;;;8.88;5.40;;;;;;;;;;5094043;28;20025;-72
2021/07/29 07:56:54;;;;;;;6.60;5.75;;;;;;;;;;5093631;28;20050;-72
2021/07/29 07:59:20;;;;;;;9.95;6.45;;;;;;;;;;5093467;28;20097;-72
2021/07/29 08:01:46;;;;;;;5.85;5.25;;;;;;;;;;5093444;28;20024;-72
2021/07/29 08:04:12;;;;;;;6.63;6.05;;;;;;;;;;5093305;28;20032;-72
2021/07/29 08:06:38;;;;;;;6.53;5.57;;;;;;;;;;5093108;28;20355;-73
2021/07/29 08:09:04;;;;;;;6.15;5.65;;;;;;;;;;5094441;28;20036;-75
2021/07/29 08:11:31;;;;;;;6.93;6.32;;;;;;;;;;5093617;28;20050;-74
2021/07/29 08:13:57;;;;;;;5.30;4.82;;;;;;;;;;5093555;28;20032;-74
2021/07/29 08:16:23;;;;;;;9.43;5.68;;;;;;;;;;5093930;28;20019;-74
2021/07/29 08:18:50;;;;;;;6.70;6.10;;;;;;;;;;5093734;28;20032;-74
2021/07/29 08:21:16;;;;;;;5.97;5.38;;;;;;;;;;5094266;28;20028;-73
2021/07/29 08:23:42;;;;;;;9.25;5.80;;;;;;;;;;5094183;28;20115;-73
2021/07/29 08:26:10;;;;;;;5.70;5.20;;;;;;;;;;5093372;28;20034;-74
2021/07/29 08:28:40;;;;;;;6.85;6.15;;;;;;;;;;5093617;28;20492;-73
2021/07/29 08:31:07;;;;;;;5.82;5.32;;;;;;;;;;5093848;28;20020;-72
2021/07/29 08:33:33;;;;;;;6.38;5.57;;;;;;;;;;5093897;28;20107;-75
2021/07/29 08:35:59;;;;;;;5.70;5.20;;;;;;;;;;5093288;28;20016;-73
2021/07/29 08:38:25;;;;;;;5.07;4.68;;;;;;;;;;5093027;28;20531;-75
2021/07/29 08:40:53;;;;;;;5.43;4.93;;;;;;;;;;5093477;28;20042;-73
2021/07/29 08:43:19;;;;;;;5.13;4.53;;;;;;;;;;5093279;28;20023;-75
2021/07/29 08:45:45;;;;;;;5.38;4.88;;;;;;;;;;5093564;28;20024;-75
2021/07/29 08:48:12;;;;;;;5.53;5.03;;;;;;;;;;5093535;28;20028;-74
2021/07/29 08:50:38;;;;;;;4.82;4.43;;;;;;;;;;5093465;28;20066;-74
2021/07/29 08:53:04;;;;;;;4.30;3.90;;;;;;;;;;5093564;28;20473;-74
2021/07/29 08:55:30;;;;;;;5.38;4.97;;;;;;;;;;5094220;28;20141;-74
2021/07/29 08:57:56;;;;;;;5.18;4.63;;;;;;;;;;5092686;28;20103;-74
2021/07/29 09:00:22;;;;;;;4.43;4.03;;;;;;;;;;5096600;28;20043;-75
2021/07/29 09:02:48;;;;;;;4.30;3.85;;;;;;;;;;5097290;28;20024;-74
2021/07/29 09:05:15;;;;;;;3.88;3.55;;;;;;;;;;5097120;28;20028;-74
2021/07/29 09:07:41;;;;;;;4.88;4.38;;;;;;;;;;5097194;28;20077;-74
2021/07/29 09:10:24;;;;;;;4.38;3.97;;;;;;;;;;5097291;28;20546;-74
2021/07/29 09:13:10;;;;;;;4.32;3.97;;;;;;;;;;5097696;28;20112;-73
2021/07/29 09:15:36;;;;;;;4.90;3.80;;;;;;;;;;5081948;28;20527;-75
2021/07/29 09:18:03;;;;;;;4.03;3.63;;;;;;;;;;5096685;28;20032;-75
2021/07/29 09:20:29;;;;;;;4.68;4.22;;;;;;;;;;5096577;28;20082;-74
2021/07/29 09:22:55;;;;;;;4.57;4.18;;;;;;;;;;5096898;28;20028;-73
2021/07/29 09:25:26;;;;;;;6.88;4.45;;;;;;;;;;5096719;28;20411;-73
2021/07/29 09:27:52;;;;;;;8.15;4.25;;;;;;;;;;5096604;28;20020;-75
2021/07/29 09:30:21;;;;;;;7.00;4.43;;;;;;;;;;5096818;28;20079;-74
2021/07/29 09:33:04;;;;;;;7.28;4.28;;;;;;;;;;5096630;28;20061;-74
2021/07/29 09:35:47;;;;;;;4.00;3.70;;;;;;;;;;5096502;28;20031;-74
2021/07/29 09:38:29;;;;;;;4.55;4.15;;;;;;;;;;5096543;28;20040;-74
2021/07/29 09:40:56;;;;;;;5.85;4.25;;;;;;;;;;5096807;28;20024;-72
2021/07/29 09:43:24;;;;;;;5.68;3.67;;;;;;;;;;5095817;28;20389;-73
2021/07/29 09:45:51;;;;;;;4.70;4.28;;;;;;;;;;5096725;28;20385;-74
2021/07/29 09:48:18;;;;;;;7.55;4.00;;;;;;;;;;5095709;28;20378;-73
2021/07/29 09:50:44;;;;;;;9.93;4.18;;;;;;;;;;5096630;28;20028;-73
2021/07/29 09:53:10;;;;;;;5.47;4.35;;;;;;;;;;5096067;28;20043;-74
2021/07/29 09:55:36;;;;;;;4.30;3.97;;;;;;;;;;5096551;28;20024;-72
2021/07/29 09:58:03;;;;;;;4.30;3.80;;;;;;;;;;5095415;28;20110;-72
2021/07/29 10:00:29;;;;;;;4.00;3.70;;;;;;;;;;5095853;28;20481;-74
2021/07/29 10:02:55;;;;;;;5.43;4.20;;;;;;;;;;5096243;28;20028;-74
2021/07/29 10:05:23;;;;;;;5.10;4.60;;;;;;;;;;5095886;28;20351;-74
2021/07/29 10:07:49;;;;;;;3.78;3.47;;;;;;;;;;5097005;28;20024;-74
2021/07/29 10:10:16;;;;;;;6.72;4.07;;;;;;;;;;5095144;28;20025;-74
2021/07/29 10:12:46;;;;;;;4.18;3.70;;;;;;;;;;5096295;28;20035;-73
2021/07/29 10:15:12;;;;;;;4.18;3.75;;;;;;;;;;5095846;28;20024;-75
2021/07/29 10:18:02;;;;;;;3.55;3.20;;;;;;;;;;5096862;28;20028;-75
2021/07/29 10:20:32;;;;;;;3.70;3.30;;;;;;;;;;5082250;28;20036;-73
2021/07/29 10:23:18;;;;;;;3.33;2.92;;;;;;;;;;5095842;28;20024;-72
2021/07/29 10:26:03;;;;;;;3.33;3.03;;;;;;;;;;5080453;28;20024;-72
2021/07/29 10:28:35;;;;;;;7.80;3.47;;;;;;;;;;5095775;28;20024;-72
2021/07/29 10:31:01;;;;;;;;;;;;;;;;;;5096199;28;20022;-74
2021/07/29 10:33:28;;;;;;;3.05;2.70;;;;;;;;;;5095612;28;19913;-73
2021/07/29 10:35:55;;;;;;;3.60;3.30;;;;;;;;;;5095351;28;20028;-74
2021/07/29 10:38:41;;;;;;;3.78;3.47;;;;;;;;;;5094873;28;20385;-74
2021/07/29 10:41:27;;;;;;;3.47;3.00;;;;;;;;;;5080717;28;20039;-74
2021/07/29 10:43:53;;;;;;;3.42;2.95;;;;;;;;;;5079530;28;20424;-74
2021/07/29 10:46:19;;;;;;;3.55;3.22;;;;;;;;;;5095304;28;20024;-74
2021/07/29 10:49:12;;;;;;;9.07;3.38;;;;;;;;;;5094486;28;20051;-75
2021/07/29 10:51:39;;;;;;;3.00;2.70;;;;;;;;;;5094873;28;20077;-74
2021/07/29 10:54:05;;;;;;;3.28;2.97;;;;;;;;;;5095004;28;20028;-73
2021/07/29 10:56:31;;;;;;;3.58;2.92;;;;;;;;;;5095179;28;20075;-75
2021/07/29 10:58:57;;;;;;;3.55;3.25;;;;;;;;;;5094958;28;20535;-74
2021/07/29 11:01:43;;;;;;;4.55;2.90;;;;;;;;;;5094542;28;20055;-74
2021/07/29 11:04:09;;;;;;;3.28;2.70;;;;;;;;;;5079646;28;20388;-75
2021/07/29 11:06:40;;;;;;;3.15;2.90;;;;;;;;;;5094833;28;20028;-75
2021/07/29 11:09:15;;;;;;;3.20;2.90;;;;;;;;;;5095068;28;20465;-74
2021/07/29 11:11:41;;;;;;;3.15;2.95;;;;;;;;;;5094652;28;20107;-74
2021/07/29 11:14:07;;;;;;;3.15;2.85;;;;;;;;;;5093311;28;20032;-73
2021/07/29 11:16:33;;;;;;;3.60;3.30;;;;;;;;;;5095373;28;20020;-73
2021/07/29 11:19:00;;;;;;;3.17;2.88;;;;;;;;;;5094512;28;20032;-74
2021/07/29 11:21:26;;;;;;;7.75;3.78;;;;;;;;;;5094402;28;20496;-73
2021/07/29 11:23:52;;;;;;;16.65;3.38;;;;;;;;;;5093902;28;20115;-74
2021/07/29 11:26:18;;;;;;;4.65;3.17;;;;;;;;;;5094572;28;20024;-74
2021/07/29 11:28:45;;;;;;;3.00;2.80;;;;;;;;;;5094458;28;20045;-74
2021/07/29 11:31:11;;;;;;;3.92;2.97;;;;;;;;;;5094295;28;20041;-73
2021/07/29 11:33:37;;;;;;;2.67;2.47;;;;;;;;;;5094148;28;20020;-75
2021/07/29 11:36:08;;;;;;;3.15;2.85;;;;;;;;;;5094322;28;20531;-75
2021/07/29 11:38:34;;;;;;;2.90;2.67;;;;;;;;;;5094700;28;20042;-74
2021/07/29 11:41:01;;;;;;;5.53;2.97;;;;;;;;;;5093386;28;20070;-75
2021/07/29 11:43:28;;;;;;;3.55;2.92;;;;;;;;;;5094772;28;20016;-74
2021/07/29 11:46:03;;;;;;;3.40;3.10;;;;;;;;;;5093929;28;20477;-74
2021/07/29 11:48:29;;;;;;;4.03;3.38;;;;;;;;;;5094491;28;20063;-75
2021/07/29 11:50:55;;;;;;;3.05;2.58;;;;;;;;;;5094204;28;20020;-74
2021/07/29 11:53:23;;;;;;;2.80;2.50;;;;;;;;;;5094026;28;20047;-75
2021/07/29 11:55:56;;;;;;;3.75;3.30;;;;;;;;;;5093776;28;20032;-73
2021/07/29 11:58:22;;;;;;;4.15;3.28;;;;;;;;;;5094801;28;20035;-74
2021/07/29 12:00:49;;;;;;;3.00;2.80;;;;;;;;;;5094177;28;20036;-75
2021/07/29 12:03:31;;;;;;;4.28;3.13;;;;;;;;;;5094349;28;20028;-74
2021/07/29 12:05:58;;;;;;;6.07;2.50;;;;;;;;;;5093881;28;20028;-75
2021/07/29 12:08:24;;;;;;;2.90;2.60;;;;;;;;;;5093904;28;20039;-75
2021/07/29 12:10:52;;;;;;;3.55;2.97;;;;;;;;;;5094089;28;20017;-74
2021/07/29 12:13:20;;;;;;;2.97;2.72;;;;;;;;;;5093746;28;20024;-74
2021/07/29 12:15:48;;;;;;;2.78;2.47;;;;;;;;;;5093930;28;20024;-74
2021/07/29 12:18:16;;;;;;;3.45;3.15;;;;;;;;;;5093528;28;20066;-75
2021/07/29 12:20:42;;;;;;;5.63;3.08;;;;;;;;;;5093763;28;20036;-75
2021/07/29 12:23:09;;;;;;;3.60;2.90;;;;;;;;;;5094109;28;20441;-75
2021/07/29 12:25:35;;;;;;;5.30;3.28;;;;;;;;;;5093615;28;20031;-75
2021/07/29 12:28:01;;;;;;;2.72;2.53;;;;;;;;;;5093666;28;20031;-75
2021/07/29 12:30:30;;;;;;;2.83;2.63;;;;;;;;;;5093522;28;20058;-74
2021/07/29 12:33:03;;;;;;;4.15;3.10;;;;;;;;;;5094119;28;20020;-76
2021/07/29 12:35:30;;;;;;;3.38;3.08;;;;;;;;;;5097535;28;20574;-75
2021/07/29 12:37:59;;;;;;;3.25;2.97;;;;;;;;;;5097557;28;20043;-75
2021/07/29 12:40:25;;;;;;;4.05;3.65;;;;;;;;;;5097511;28;20044;-75
2021/07/29 12:42:51;;;;;;;5.38;4.45;;;;;;;;;;5097737;28;20458;-73
2021/07/29 12:45:17;;;;;;;3.15;2.85;;;;;;;;;;5097545;28;20024;-75
2021/07/29 12:48:03;;;;;;;3.60;3.03;;;;;;;;;;5097258;28;20020;-77
2021/07/29 12:50:37;;;;;;;4.07;3.67;;;;;;;;;;5082573;28;20020;-74
2021/07/29 12:53:10;;;;;;;5.38;3.92;;;;;;;;;;5097639;28;20470;-75
2021/07/29 12:55:38;;;;;;;4.72;3.58;;;;;;;;;;5097808;28;20389;-75
2021/07/29 12:58:04;;;;;;;3.38;3.08;;;;;;;;;;5096822;28;20545;-75
2021/07/29 13:00:30;;;;;;;3.70;3.40;;;;;;;;;;5097367;28;20032;-75
2021/07/29 13:02:56;;;;;;;2.92;2.67;;;;;;;;;;5097549;28;20062;-75
2021/07/29 13:05:22;;;;;;;3.78;3.47;;;;;;;;;;5096950;28;20028;-75
2021/07/29 13:07:49;;;;;;;6.40;2.88;;;;;;;;;;5097166;28;20024;-75
2021/07/29 13:10:15;;;;;;;4.10;3.30;;;;;;;;;;5097382;28;20062;-75
2021/07/29 13:12:41;;;;;;;3.65;3.30;;;;;;;;;;5096868;28;20024;-73
2021/07/29 13:15:07;;;;;;;4.22;3.83;;;;;;;;;;5097200;28;20024;-74
2021/07/29 13:17:33;;;;;;;4.32;3.92;;;;;;;;;;5097144;28;20119;-73
2021/07/29 13:20:00;;;;;;;4.95;3.50;;;;;;;;;;5096367;28;20039;-76
2021/07/29 13:22:27;;;;;;;4.13;3.63;;;;;;;;;;5097394;28;20016;-75
2021/07/29 13:24:54;;;;;;;4.20;3.80;;;;;;;;;;5096872;28;20028;-76
2021/07/29 13:27:21;;;;;;;3.63;3.33;;;;;;;;;;5097044;28;20158;-76
2021/07/29 13:29:47;;;;;;;3.60;3.30;;;;;;;;;;5096539;28;20024;-76
2021/07/29 13:32:13;;;;;;;4.03;3.72;;;;;;;;;;5096652;28;20055;-76
2021/07/29 13:34:39;;;;;;;4.15;3.78;;;;;;;;;;5097642;28;20038;-75
2021/07/29 13:37:05;;;;;;;3.80;3.50;;;;;;;;;;5096703;28;20027;-75
2021/07/29 13:39:31;;;;;;;4.38;3.97;;;;;;;;;;5096452;28;20036;-75
2021/07/29 13:41:57;;;;;;;3.55;3.22;;;;;;;;;;5096183;28;20046;-75
2021/07/29 13:44:23;;;;;;;4.10;3.80;;;;;;;;;;5096196;28;20035;-76
2021/07/29 13:46:49;;;;;;;4.03;3.60;;;;;;;;;;5095732;28;20462;-75
2021/07/29 13:49:15;;;;;;;3.70;3.40;;;;;;;;;;5096051;28;20028;-75
2021/07/29 13:51:41;;;;;;;5.18;3.97;;;;;;;;;;5096223;28;20024;-76
2021/07/29 13:54:08;;;;;;;3.55;3.22;;;;;;;;;;5096538;28;20031;-76
2021/07/29 13:56:34;;;;;;;5.45;4.05;;;;;;;;;;5096043;28;20052;-74
2021/07/29 13:59:00;;;;;;;5.15;4.32;;;;;;;;;;5096121;28;20036;-75
2021/07/29 14:01:26;;;;;;;4.70;4.30;;;;;;;;;;5096565;28;20020;-74
2021/07/29 14:03:52;;;;;;;5.03;4.00;;;;;;;;;;5096068;28;20114;-76
2021/07/29 14:06:19;;;;;;;4.82;3.70;;;;;;;;;;5096115;28;20023;-74
2021/07/29 14:08:46;;;;;;;4.13;3.83;;;;;;;;;;5096076;28;20020;-74
2021/07/29 14:11:12;;;;;;;3.83;3.53;;;;;;;;;;5096387;28;20032;-74
2021/07/29 14:13:38;;;;;;;5.22;3.45;;;;;;;;;;5095776;28;20121;-75
2021/07/29 14:16:06;;;;;;;4.60;4.03;;;;;;;;;;5095830;28;20032;-75
2021/07/29 14:18:32;;;;;;;4.40;4.00;;;;;;;;;;5096695;28;20028;-73
2021/07/29 14:21:03;;;;;;;4.20;3.83;;;;;;;;;;5095679;28;20028;-73
2021/07/29 14:23:29;;;;;;;4.15;3.75;;;;;;;;;;5095672;28;20477;-73
2021/07/29 14:25:55;;;;;;;4.30;3.75;;;;;;;;;;5095185;28;20115;-74
2021/07/29 14:28:21;;;;;;;4.82;4.05;;;;;;;;;;5095289;28;20025;-74
2021/07/29 14:30:47;;;;;;;4.68;4.28;;;;;;;;;;5095721;28;20050;-76
2021/07/29 14:33:13;;;;;;;4.28;3.90;;;;;;;;;;5094770;28;20042;-74
2021/07/29 14:35:43;;;;;;;5.40;4.60;;;;;;;;;;5094665;28;20020;-75
2021/07/29 14:38:09;;;;;;;3.55;3.25;;;;;;;;;;5095508;28;20027;-75
2021/07/29 14:40:35;;;;;;;4.22;3.83;;;;;;;;;;5095230;28;20032;-75
2021/07/29 14:43:02;;;;;;;4.40;4.03;;;;;;;;;;5095084;28;20035;-74